Time;durP1;ratioP1;P1;durP2;ratioP2;P2;SDS_P1;SDS_P2;PMS_P1;PMS_P2;Temp;Humidity;BMP_temperature;BMP_pressure;BME280_temperature;BME280_humidity;BME280_pressure;Samples;Min_cycle;Max_cycle;Signal;HPM_P1;HPM_P2
2022/09/28 00:00:25;;;;;;;1.37;0.87;;;9.70;99.90;;;;;;5138602;27;20553;-45
2022/09/28 00:02:51;;;;;;;1.80;1.00;;;9.80;99.90;;;;;;5139662;27;20208;-46
2022/09/28 00:05:16;;;;;;;1.53;0.80;;;9.70;99.90;;;;;;5140188;27;20569;-45
2022/09/28 00:07:42;;;;;;;4.10;1.20;;;9.70;99.90;;;;;;5139820;27;20430;-46
2022/09/28 00:10:08;;;;;;;1.17;0.80;;;9.70;99.90;;;;;;5139647;27;20180;-47
2022/09/28 00:12:34;;;;;;;1.00;0.70;;;9.70;99.90;;;;;;5140435;27;20207;-44
2022/09/28 00:14:59;;;;;;;1.43;1.10;;;9.80;99.90;;;;;;5120896;27;20440;-45
2022/09/28 00:17:25;;;;;;;1.73;0.97;;;9.80;99.90;;;;;;5139105;27;20163;-45
2022/09/28 00:19:51;;;;;;;2.50;1.00;;;9.80;99.90;;;;;;5139527;27;20208;-45
2022/09/28 00:22:17;;;;;;;1.50;0.93;;;9.80;99.90;;;;;;5138702;27;20424;-46
2022/09/28 00:24:43;;;;;;;2.27;0.90;;;9.80;99.90;;;;;;5138475;27;20429;-45
2022/09/28 00:27:09;;;;;;;1.47;0.90;;;9.80;99.90;;;;;;5139378;27;20201;-45
2022/09/28 00:29:36;;;;;;;2.23;1.00;;;9.80;99.90;;;;;;5121065;27;20425;-44
2022/09/28 00:32:23;;;;;;;1.90;0.90;;;9.80;99.90;;;;;;5121767;27;20255;-44
2022/09/28 00:34:49;;;;;;;1.90;1.10;;;9.80;99.90;;;;;;5139122;27;20413;-44
2022/09/28 00:37:17;;;;;;;3.83;1.07;;;9.80;99.90;;;;;;5137893;27;20404;-44
2022/09/28 00:39:43;;;;;;;1.23;0.73;;;9.80;99.90;;;;;;5139551;27;20425;-46
2022/09/28 00:42:28;;;;;;;2.00;1.00;;;9.80;99.90;;;;;;5138224;27;20409;-46
2022/09/28 00:44:55;;;;;;;1.20;0.80;;;9.80;99.90;;;;;;5121098;27;20185;-44
2022/09/28 00:47:31;;;;;;;1.83;1.07;;;9.90;99.90;;;;;;5120858;27;20410;-44
2022/09/28 00:50:08;;;;;;;1.93;0.97;;;9.90;99.90;;;;;;5138779;27;20770;-45
2022/09/28 00:52:44;;;;;;;1.50;0.90;;;9.90;99.90;;;;;;5120669;27;20837;-44
2022/09/28 00:55:16;;;;;;;1.67;0.80;;;9.90;99.90;;;;;;5138969;27;20468;-45
2022/09/28 00:57:46;;;;;;;1.90;0.97;;;9.90;99.90;;;;;;5120450;27;20417;-44
2022/09/28 01:00:12;;;;;;;1.90;1.07;;;9.90;99.90;;;;;;5118795;27;20664;-45
2022/09/28 01:02:38;;;;;;;1.97;0.80;;;9.90;99.90;;;;;;5137306;27;20686;-44
2022/09/28 01:05:05;;;;;;;2.77;1.00;;;9.90;99.90;;;;;;5119920;27;20712;-45
2022/09/28 01:07:31;;;;;;;1.47;0.80;;;9.90;99.90;;;;;;5137849;27;20432;-46
2022/09/28 01:09:56;;;;;;;3.77;0.90;;;9.90;99.90;;;;;;5120002;27;20409;-44
2022/09/28 01:12:22;;;;;;;1.50;0.90;;;10.00;99.90;;;;;;5138204;27;20236;-46
2022/09/28 01:14:48;;;;;;;2.07;1.20;;;10.00;99.90;;;;;;5138325;27;20168;-44
2022/09/28 01:17:29;;;;;;;1.40;0.80;;;10.00;99.90;;;;;;5139021;27;20188;-45
2022/09/28 01:20:02;;;;;;;1.60;1.00;;;10.00;99.90;;;;;;5103025;27;20423;-46
2022/09/28 01:22:54;;;;;;;3.33;0.97;;;10.00;99.90;;;;;;5121078;27;20528;-44
2022/09/28 01:25:44;;;;;;;2.07;0.90;;;10.00;99.90;;;;;;5138622;27;20837;-45
2022/09/28 01:28:11;;;;;;;1.50;1.00;;;10.00;99.90;;;;;;5119627;27;20995;-44
2022/09/28 01:30:45;;;;;;;1.87;0.80;;;10.00;99.90;;;;;;5120317;27;20810;-47
2022/09/28 01:33:19;;;;;;;2.13;1.00;;;10.00;99.90;;;;;;5119991;27;20457;-44
2022/09/28 01:35:53;;;;;;;2.27;1.30;;;10.00;99.90;;;;;;5120682;27;20511;-46
2022/09/28 01:38:22;;;;;;;2.83;1.17;;;10.10;99.90;;;;;;5120275;27;20409;-44
2022/09/28 01:40:48;;;;;;;3.97;1.20;;;10.00;99.90;;;;;;5120116;27;20421;-43
2022/09/28 01:43:17;;;;;;;2.63;1.03;;;10.00;99.90;;;;;;5138257;27;20690;-43
2022/09/28 01:45:47;;;;;;;2.70;1.07;;;10.00;99.90;;;;;;5120488;27;20549;-50
2022/09/28 01:48:20;;;;;;;2.20;1.37;;;10.10;99.90;;;;;;5102943;27;20502;-44
2022/09/28 01:50:50;;;;;;;2.87;0.90;;;10.10;99.90;;;;;;5120442;27;20643;-43
2022/09/28 01:53:21;;;;;;;4.23;1.13;;;10.10;99.90;;;;;;5120270;28;20476;-46
2022/09/28 01:55:56;;;;;;;1.47;1.00;;;10.10;99.90;;;;;;5119139;28;20768;-46
2022/09/28 01:58:43;;;;;;;4.30;1.40;;;10.10;99.90;;;;;;5120146;28;20431;-46
2022/09/28 02:01:14;;;;;;;7.00;1.20;;;10.10;99.90;;;;;;5137366;28;20413;-45
2022/09/28 02:03:53;;;;;;;4.10;1.40;;;10.10;99.90;;;;;;5138164;28;20429;-44
2022/09/28 02:06:26;;;;;;;3.40;1.40;;;10.10;99.90;;;;;;5120625;28;20861;-44
2022/09/28 02:08:54;;;;;;;3.10;0.93;;;10.10;99.90;;;;;;5119149;28;20724;-46
2022/09/28 02:11:21;;;;;;;3.77;1.10;;;10.10;99.90;;;;;;5119992;28;20560;-46
2022/09/28 02:13:53;;;;;;;2.77;1.17;;;10.10;99.90;;;;;;5120093;28;20423;-49
2022/09/28 02:16:27;;;;;;;3.33;1.20;;;10.10;99.90;;;;;;5120003;28;20417;-44
2022/09/28 02:18:52;;;;;;;2.60;1.10;;;10.10;99.90;;;;;;5119621;28;20438;-45
2022/09/28 02:21:32;;;;;;;6.57;1.57;;;10.10;99.90;;;;;;5119243;28;20429;-46
2022/09/28 02:24:05;;;;;;;4.90;1.33;;;10.10;99.90;;;;;;5137763;28;20231;-44
2022/09/28 02:26:35;;;;;;;4.33;1.53;;;10.10;99.90;;;;;;5137726;28;20414;-47
2022/09/28 02:29:01;;;;;;;4.87;1.63;;;10.10;99.90;;;;;;5137865;28;20580;-47
2022/09/28 02:31:26;;;;;;;3.57;1.43;;;10.10;99.90;;;;;;5137292;28;20529;-47
2022/09/28 02:33:54;;;;;;;3.70;1.53;;;10.10;99.90;;;;;;5137816;28;20171;-45
2022/09/28 02:36:19;;;;;;;4.17;1.50;;;10.10;99.90;;;;;;5119606;28;20257;-43
2022/09/28 02:38:45;;;;;;;4.50;1.17;;;10.10;99.90;;;;;;5138238;27;20776;-44
2022/09/28 02:41:33;;;;;;;2.80;1.20;;;10.10;99.90;;;;;;5141316;27;20175;-45
2022/09/28 02:44:14;;;;;;;3.63;1.00;;;10.10;99.90;;;;;;5142062;27;20228;-44
2022/09/28 02:46:53;;;;;;;2.80;1.40;;;10.10;99.90;;;;;;5123724;27;20436;-46
2022/09/28 02:49:36;;;;;;;3.53;1.20;;;10.10;99.90;;;;;;5141443;27;20857;-44
2022/09/28 02:52:18;;;;;;;3.17;1.50;;;10.10;99.90;;;;;;5140598;27;20448;-45
2022/09/28 02:55:31;;;;;;;5.73;1.40;;;10.10;99.90;;;;;;5122816;27;20467;-43
2022/09/28 02:58:14;;;;;;;3.90;1.27;;;10.10;99.90;;;;;;5063110;27;20515;-43
2022/09/28 03:00:44;;;;;;;3.40;1.33;;;10.20;99.90;;;;;;5141843;27;21006;-44
2022/09/28 03:03:42;;;;;;;3.80;1.47;;;10.10;99.90;;;;;;5122922;27;20433;-44
2022/09/28 03:06:25;;;;;;;3.03;1.40;;;10.10;99.90;;;;;;5084526;27;20747;-43
2022/09/28 03:08:56;;;;;;;2.53;1.30;;;10.10;99.90;;;;;;5141115;27;20746;-48
2022/09/28 03:11:29;;;;;;;5.43;1.60;;;10.10;99.90;;;;;;5140215;27;20934;-55
2022/09/28 03:13:55;;;;;;;2.60;1.20;;;10.10;99.90;;;;;;5141710;27;20491;-45
2022/09/28 03:16:21;;;;;;;5.50;1.43;;;10.10;99.90;;;;;;5123529;27;20413;-46
2022/09/28 03:18:46;;;;;;;2.73;1.20;;;10.10;99.90;;;;;;5105370;27;20457;-44
2022/09/28 03:21:13;;;;;;;2.63;1.20;;;10.20;99.90;;;;;;5140624;27;20240;-45
2022/09/28 03:23:39;;;;;;;2.67;1.30;;;10.10;99.90;;;;;;5140297;27;20244;-46
2022/09/28 03:26:07;;;;;;;5.53;1.63;;;10.10;99.90;;;;;;5140857;27;20401;-46
2022/09/28 03:28:35;;;;;;;3.90;1.80;;;10.10;99.90;;;;;;5105630;27;20689;-46
2022/09/28 03:31:00;;;;;;;6.90;1.63;;;10.10;99.90;;;;;;5122029;27;20397;-47
2022/09/28 03:33:26;;;;;;;5.13;1.23;;;10.10;99.90;;;;;;5138106;27;20711;-46
2022/09/28 03:35:52;;;;;;;2.70;1.60;;;10.10;99.90;;;;;;5138534;27;20416;-44
2022/09/28 03:38:18;;;;;;;3.00;1.40;;;10.10;99.90;;;;;;5138435;27;20180;-46
2022/09/28 03:40:54;;;;;;;3.40;1.00;;;10.10;99.90;;;;;;5136376;27;20612;-50
2022/09/28 03:43:20;;;;;;;2.30;1.20;;;10.10;99.90;;;;;;5138343;27;20432;-45
2022/09/28 03:45:56;;;;;;;3.53;1.43;;;10.10;99.90;;;;;;5137535;27;20421;-45
2022/09/28 03:48:24;;;;;;;4.87;1.40;;;10.10;99.90;;;;;;5138630;27;20170;-44
2022/09/28 03:50:57;;;;;;;3.23;1.40;;;10.10;99.90;;;;;;5118278;27;20602;-46
2022/09/28 03:53:23;;;;;;;2.50;1.37;;;10.10;99.90;;;;;;5137746;27;20568;-46
2022/09/28 03:55:51;;;;;;;2.77;1.43;;;10.10;99.90;;;;;;5139293;27;20565;-44
2022/09/28 03:58:20;;;;;;;2.33;1.20;;;10.10;99.90;;;;;;5119901;27;20468;-44
2022/09/28 04:00:47;;;;;;;2.20;1.33;;;10.10;99.90;;;;;;5138235;27;20413;-47
2022/09/28 04:03:13;;;;;;;2.00;1.27;;;10.10;99.90;;;;;;5137825;27;20425;-45
2022/09/28 04:05:39;;;;;;;3.10;1.70;;;10.10;99.90;;;;;;5137359;27;20890;-46
2022/09/28 04:08:04;;;;;;;3.37;1.40;;;10.10;99.90;;;;;;5137244;27;20455;-48
2022/09/28 04:10:30;;;;;;;4.13;1.50;;;10.10;99.90;;;;;;5137118;27;20179;-45
2022/09/28 04:12:56;;;;;;;1.80;1.20;;;10.10;99.90;;;;;;5137489;27;20208;-44
2022/09/28 04:15:25;;;;;;;3.03;1.17;;;10.10;99.90;;;;;;5137937;27;20183;-49
2022/09/28 04:17:51;;;;;;;3.33;1.47;;;10.10;99.90;;;;;;5118896;27;20474;-45
2022/09/28 04:20:17;;;;;;;2.07;1.37;;;10.10;99.90;;;;;;5136530;27;20405;-46
2022/09/28 04:22:43;;;;;;;2.03;1.23;;;10.10;99.90;;;;;;5119063;27;20210;-43
2022/09/28 04:25:08;;;;;;;3.50;1.53;;;10.10;99.90;;;;;;5136315;27;20831;-45
2022/09/28 04:30:18;;;;;;;2.50;1.40;;;10.20;99.90;;;;;;5136586;27;20170;-44
2022/09/28 04:32:47;;;;;;;3.20;2.07;;;10.20;99.90;;;;;;5137910;27;20748;-46
2022/09/28 04:35:13;;;;;;;2.47;1.30;;;10.20;99.90;;;;;;5101424;27;20455;-48
2022/09/28 04:37:39;;;;;;;2.77;1.57;;;10.20;99.90;;;;;;5136309;27;20425;-44
2022/09/28 04:40:05;;;;;;;5.00;1.37;;;10.20;99.90;;;;;;5117847;27;20413;-45
2022/09/28 04:42:31;;;;;;;2.03;1.00;;;10.20;99.90;;;;;;5136618;27;20472;-45
2022/09/28 04:44:57;;;;;;;1.30;1.20;;;10.20;99.90;;;;;;5136462;27;20436;-47
2022/09/28 04:47:23;;;;;;;1.50;0.87;;;10.20;99.90;;;;;;5117177;27;20175;-49
2022/09/28 04:49:49;;;;;;;1.10;0.70;;;10.20;99.90;;;;;;5133864;27;20416;-45
2022/09/28 04:52:15;;;;;;;1.77;1.23;;;10.10;99.90;;;;;;5135573;27;20453;-47
2022/09/28 04:54:41;;;;;;;2.80;1.30;;;10.20;99.90;;;;;;5133953;27;20280;-44
2022/09/28 04:57:07;;;;;;;2.70;1.00;;;10.20;99.90;;;;;;5117713;27;20577;-46
2022/09/28 04:59:32;;;;;;;2.10;1.20;;;10.10;99.90;;;;;;5133911;27;20524;-47
2022/09/28 05:01:58;;;;;;;2.17;1.33;;;10.10;99.90;;;;;;5133607;27;20433;-45
2022/09/28 05:04:24;;;;;;;1.17;0.93;;;10.10;99.90;;;;;;5132916;27;20175;-45
2022/09/28 05:06:49;;;;;;;2.53;1.30;;;10.10;99.90;;;;;;5134093;27;20228;-43
2022/09/28 05:09:15;;;;;;;1.93;1.20;;;10.10;99.90;;;;;;5134054;27;20251;-44
2022/09/28 05:11:40;;;;;;;1.27;0.90;;;10.10;99.90;;;;;;5115436;27;20307;-43
2022/09/28 05:14:06;;;;;;;4.07;1.00;;;10.10;99.90;;;;;;5132046;27;20561;-46
2022/09/28 05:16:35;;;;;;;1.90;1.30;;;10.00;99.90;;;;;;5112854;27;20270;-44
2022/09/28 05:19:01;;;;;;;3.67;2.33;;;10.00;99.90;;;;;;5130321;27;20195;-44
2022/09/28 05:21:28;;;;;;;4.50;2.97;;;9.90;99.90;;;;;;5129377;27;20460;-44
2022/09/28 05:23:55;;;;;;;5.30;3.10;;;9.90;99.90;;;;;;5112955;27;20174;-44
2022/09/28 05:26:21;;;;;;;6.07;5.47;;;9.90;99.90;;;;;;5131844;27;20706;-44
2022/09/28 05:28:47;;;;;;;7.50;6.73;;;9.90;99.90;;;;;;5131200;27;20680;-44
2022/09/28 05:31:13;;;;;;;6.83;5.97;;;9.80;99.90;;;;;;5129704;27;20493;-44
2022/09/28 05:33:39;;;;;;;6.70;5.87;;;9.80;99.90;;;;;;5111473;27;20297;-46
2022/09/28 05:36:08;;;;;;;5.63;4.80;;;9.80;99.90;;;;;;5130277;27;20497;-47
2022/09/28 05:38:34;;;;;;;4.63;3.50;;;9.80;99.90;;;;;;5128806;27;20229;-46
2022/09/28 05:40:59;;;;;;;5.57;2.63;;;9.80;99.90;;;;;;5130358;27;20986;-46
2022/09/28 05:43:25;;;;;;;3.13;1.97;;;9.80;99.90;;;;;;5131618;27;20171;-46
2022/09/28 05:45:50;;;;;;;2.27;1.77;;;9.80;99.90;;;;;;5130502;27;20215;-45
2022/09/28 05:48:16;;;;;;;1.87;1.47;;;9.70;99.90;;;;;;5132604;27;20206;-44
2022/09/28 05:50:41;;;;;;;2.10;1.10;;;9.70;99.90;;;;;;5113194;27;20626;-45
2022/09/28 05:53:08;;;;;;;4.80;1.20;;;9.70;99.90;;;;;;5129579;27;20206;-42
2022/09/28 05:55:35;;;;;;;3.60;1.37;;;9.70;99.90;;;;;;5130454;27;20578;-44
2022/09/28 05:58:03;;;;;;;1.43;0.83;;;9.70;99.90;;;;;;5133134;27;20432;-42
2022/09/28 06:00:30;;;;;;;2.47;1.10;;;9.80;99.90;;;;;;5112716;28;20644;-43
2022/09/28 06:03:02;;;;;;;1.50;1.10;;;9.80;99.90;;;;;;5131975;28;20600;-43
2022/09/28 06:05:28;;;;;;;2.73;1.10;;;9.80;99.90;;;;;;5131269;28;20489;-43
2022/09/28 06:07:58;;;;;;;2.83;1.30;;;9.80;99.90;;;;;;5131530;28;20424;-44
2022/09/28 06:10:24;;;;;;;3.27;1.50;;;9.80;99.90;;;;;;5132621;28;20459;-45
2022/09/28 06:12:54;;;;;;;2.47;1.37;;;9.80;99.90;;;;;;5133516;27;20727;-42
2022/09/28 06:15:21;;;;;;;2.77;1.40;;;9.80;99.90;;;;;;5137098;27;20698;-45
2022/09/28 06:17:47;;;;;;;2.20;1.57;;;9.90;99.90;;;;;;5117689;27;20702;-45
2022/09/28 06:20:13;;;;;;;4.83;1.60;;;9.90;99.90;;;;;;5138528;27;20823;-43
2022/09/28 06:22:38;;;;;;;2.97;2.00;;;9.90;99.90;;;;;;5133792;27;20225;-45
2022/09/28 06:25:05;;;;;;;3.60;1.80;;;9.90;99.90;;;;;;5139340;27;20656;-44
2022/09/28 06:27:32;;;;;;;4.30;2.03;;;9.90;99.90;;;;;;5139996;27;20210;-45
2022/09/28 06:29:59;;;;;;;3.50;1.57;;;10.00;99.90;;;;;;5140102;27;20413;-45
2022/09/28 06:32:28;;;;;;;6.10;2.40;;;10.00;99.90;;;;;;5139828;27;20559;-45
2022/09/28 06:34:54;;;;;;;3.07;1.60;;;10.10;99.90;;;;;;5121027;27;20438;-42
2022/09/28 06:37:19;;;;;;;2.37;1.67;;;10.20;99.90;;;;;;5139113;27;20417;-44
2022/09/28 06:39:45;;;;;;;2.47;1.80;;;10.30;99.90;;;;;;5140961;27;20405;-43
2022/09/28 06:42:10;;;;;;;3.03;1.60;;;10.50;99.90;;;;;;5122763;27;20502;-44
2022/09/28 06:44:36;;;;;;;3.00;1.70;;;10.60;99.90;;;;;;5137002;27;20211;-42
2022/09/28 06:47:02;;;;;;;2.27;1.50;;;10.70;99.90;;;;;;5137850;27;20183;-43
2022/09/28 06:49:29;;;;;;;2.60;1.70;;;10.90;99.90;;;;;;5138039;27;20232;-45
2022/09/28 06:51:54;;;;;;;2.63;1.77;;;11.00;99.90;;;;;;5135806;27;20469;-46
2022/09/28 06:54:24;;;;;;;1.97;1.60;;;11.10;99.90;;;;;;5137290;27;20510;-44
2022/09/28 06:56:51;;;;;;;2.10;1.20;;;11.30;99.90;;;;;;5135312;27;20182;-43
2022/09/28 06:59:16;;;;;;;3.57;1.23;;;11.40;99.90;;;;;;5136305;27;20409;-45
2022/09/28 07:01:42;;;;;;;2.20;1.40;;;11.60;99.90;;;;;;5134747;27;20760;-42
2022/09/28 07:04:08;;;;;;;3.20;1.07;;;11.80;99.90;;;;;;5134354;27;20175;-46
2022/09/28 07:06:33;;;;;;;2.97;1.23;;;11.90;99.90;;;;;;5120334;27;20278;-41
2022/09/28 07:09:01;;;;;;;1.53;1.00;;;12.00;99.60;;;;;;5137613;27;20420;-42
2022/09/28 07:11:27;;;;;;;1.70;1.10;;;12.00;99.30;;;;;;5135777;27;20582;-45
2022/09/28 07:13:53;;;;;;;1.50;0.90;;;11.90;99.20;;;;;;5134362;27;20409;-44
2022/09/28 07:16:19;;;;;;;2.23;1.17;;;11.80;99.10;;;;;;5114773;27;20431;-44
2022/09/28 07:18:44;;;;;;;1.80;1.30;;;11.80;99.20;;;;;;5135077;27;20206;-42
2022/09/28 07:21:11;;;;;;;2.77;1.30;;;11.70;99.10;;;;;;5133483;27;20187;-43
2022/09/28 07:23:36;;;;;;;2.93;0.80;;;11.70;98.90;;;;;;5131678;27;20227;-44
2022/09/28 07:26:04;;;;;;;2.83;0.90;;;12.10;99.90;;;;;;5133516;27;20468;-46
2022/09/28 07:28:30;;;;;;;1.70;1.10;;;12.60;99.90;;;;;;5116070;27;20174;-46
2022/09/28 07:30:56;;;;;;;1.80;1.00;;;13.10;99.90;;;;;;5136317;27;20433;-45
2022/09/28 07:33:30;;;;;;;2.43;1.03;;;13.40;99.90;;;;;;5137568;27;20464;-44
2022/09/28 07:35:55;;;;;;;2.40;1.40;;;13.80;99.90;;;;;;5138195;27;20453;-47
2022/09/28 07:38:21;;;;;;;2.57;1.20;;;14.10;99.90;;;;;;5135378;27;20410;-45
2022/09/28 07:43:31;;;;;;;4.50;1.40;;;14.60;99.90;;;;;;5136290;27;20445;-45
2022/09/28 07:45:57;;;;;;;2.57;1.37;;;15.00;98.90;;;;;;5136003;27;20743;-47
2022/09/28 07:48:23;;;;;;;6.40;1.40;;;15.30;98.20;;;;;;5135785;27;20254;-47
2022/09/28 07:50:53;;;;;;;2.27;1.23;;;15.50;97.00;;;;;;5134605;27;20753;-43
2022/09/28 07:53:20;;;;;;;3.00;1.50;;;15.60;96.50;;;;;;5116897;27;20211;-45
2022/09/28 07:55:54;;;;;;;1.87;1.47;;;15.60;95.30;;;;;;5135886;27;20597;-42
2022/09/28 07:58:20;;;;;;;2.20;1.60;;;15.40;94.20;;;;;;5117695;27;20426;-44
2022/09/28 08:00:47;;;;;;;2.23;1.57;;;15.00;92.40;;;;;;5136682;27;20474;-50
2022/09/28 08:03:17;;;;;;;2.70;1.20;;;14.70;92.30;;;;;;5135897;27;20213;-47
2022/09/28 08:05:42;;;;;;;2.63;1.30;;;14.40;92.50;;;;;;5136378;27;20421;-44
2022/09/28 08:08:09;;;;;;;1.70;1.07;;;14.30;92.80;;;;;;5136697;27;20422;-46
2022/09/28 08:10:36;;;;;;;2.53;1.40;;;14.10;92.90;;;;;;5135028;27;20183;-45
2022/09/28 08:13:02;;;;;;;3.60;1.20;;;14.20;93.10;;;;;;5135712;27;20802;-46
2022/09/28 08:15:35;;;;;;;3.33;1.40;;;14.20;93.20;;;;;;5136674;27;20418;-46
2022/09/28 08:18:02;;;;;;;3.17;1.37;;;14.30;93.10;;;;;;5135637;27;20450;-46
2022/09/28 08:23:12;;;;;;;4.10;1.67;;;14.50;92.90;;;;;;5135592;27;20448;-43
2022/09/28 08:25:37;;;;;;;1.47;0.93;;;14.60;92.80;;;;;;5135013;27;20807;-48
2022/09/28 08:28:05;;;;;;;1.77;1.20;;;14.80;92.60;;;;;;5135125;27;20592;-47
2022/09/28 08:30:31;;;;;;;2.13;1.30;;;14.90;92.30;;;;;;5135196;27;20179;-44
2022/09/28 08:32:57;;;;;;;2.53;1.37;;;15.00;91.70;;;;;;5136711;27;20734;-46
2022/09/28 08:35:24;;;;;;;3.27;1.70;;;15.10;91.30;;;;;;5135939;27;20263;-44
2022/09/28 08:37:53;;;;;;;3.57;1.83;;;15.20;91.10;;;;;;5118298;27;20186;-43
2022/09/28 08:40:24;;;;;;;2.33;1.83;;;15.40;90.90;;;;;;5136401;27;20426;-46
2022/09/28 08:43:01;;;;;;;3.67;1.93;;;15.60;90.70;;;;;;5117523;27;20426;-47
2022/09/28 08:45:28;;;;;;;2.87;1.50;;;15.90;90.30;;;;;;5118132;27;20470;-44
2022/09/28 08:51:15;;;;;;;1.90;1.30;;;16.50;87.20;;;;;;5119412;27;20504;-45
2022/09/28 08:53:51;;;;;;;3.07;1.50;;;16.70;85.40;;;;;;5126284;27;20715;-43
2022/09/28 08:56:28;;;;;;;2.80;1.40;;;16.80;84.00;;;;;;5134972;27;20427;-48
2022/09/28 08:58:57;;;;;;;2.37;1.40;;;17.10;82.80;;;;;;5134234;27;20462;-47
2022/09/28 09:01:27;;;;;;;3.47;1.80;;;17.10;82.20;;;;;;5134634;27;20416;-44
2022/09/28 09:03:53;;;;;;;3.20;1.70;;;17.20;81.50;;;;;;5115854;27;20426;-44
2022/09/28 09:06:28;;;;;;;2.50;1.40;;;17.20;80.90;;;;;;5135483;27;20635;-44
2022/09/28 09:09:03;;;;;;;2.50;1.60;;;17.20;80.80;;;;;;5117682;27;20413;-45
2022/09/28 09:11:44;;;;;;;2.43;2.17;;;17.20;80.80;;;;;;5135491;27;20417;-47
2022/09/28 09:14:53;;;;;;;2.80;1.63;;;17.10;80.50;;;;;;5099860;27;20436;-44
2022/09/28 09:17:49;;;;;;;3.50;1.70;;;17.10;80.30;;;;;;5123340;27;20509;-43
2022/09/28 09:20:26;;;;;;;2.57;1.70;;;17.10;80.10;;;;;;5119115;27;20487;-45
2022/09/28 09:22:58;;;;;;;2.83;1.40;;;17.10;80.40;;;;;;5134827;27;20500;-44
2022/09/28 09:25:40;;;;;;;5.47;1.60;;;17.20;80.30;;;;;;5130612;27;20859;-43
2022/09/28 09:28:23;;;;;;;3.23;1.97;;;17.40;80.80;;;;;;5123025;27;20538;-44
2022/09/28 09:31:10;;;;;;;2.90;1.50;;;17.50;80.40;;;;;;5133314;27;20446;-44
2022/09/28 09:33:57;;;;;;;2.30;1.77;;;17.70;80.20;;;;;;5134105;27;20468;-46
2022/09/28 09:36:52;;;;;;;3.90;1.80;;;17.80;78.80;;;;;;5134328;27;20416;-42
2022/09/28 09:39:46;;;;;;;2.20;1.60;;;17.80;78.40;;;;;;5133063;27;20622;-45
2022/09/28 09:42:22;;;;;;;4.43;1.73;;;17.70;78.20;;;;;;5114534;27;20767;-43
2022/09/28 09:45:10;;;;;;;2.87;1.37;;;17.50;78.20;;;;;;5113327;27;21069;-44
2022/09/28 09:47:43;;;;;;;4.27;1.47;;;17.40;78.70;;;;;;5132446;27;20697;-45
2022/09/28 09:50:38;;;;;;;2.87;1.27;;;17.40;78.50;;;;;;5133377;27;20429;-44
2022/09/28 09:53:23;;;;;;;2.67;1.50;;;17.50;78.00;;;;;;5131910;27;20474;-42
2022/09/28 09:55:56;;;;;;;3.30;1.53;;;17.50;77.20;;;;;;5114532;28;20473;-45
2022/09/28 09:58:34;;;;;;;1.97;1.30;;;17.50;76.80;;;;;;5133360;27;20825;-44
2022/09/28 10:01:22;;;;;;;1.83;1.30;;;17.40;76.60;;;;;;5135105;27;20436;-43
2022/09/28 10:03:48;;;;;;;2.13;1.20;;;17.40;76.60;;;;;;5116366;28;20439;-43
2022/09/28 10:06:30;;;;;;;2.17;1.63;;;17.30;76.50;;;;;;5115183;28;20425;-43
2022/09/28 10:09:13;;;;;;;2.20;1.27;;;17.30;76.90;;;;;;5135225;28;20461;-45
2022/09/28 10:11:42;;;;;;;5.13;1.90;;;17.40;76.90;;;;;;5116834;28;20540;-45
2022/09/28 10:14:14;;;;;;;3.53;1.60;;;17.60;77.10;;;;;;5133937;28;20417;-44
2022/09/28 10:16:41;;;;;;;2.33;1.40;;;17.70;77.00;;;;;;5134472;28;20417;-43
2022/09/28 10:19:12;;;;;;;4.57;2.47;;;17.70;76.80;;;;;;5115737;28;20432;-44
2022/09/28 10:21:39;;;;;;;4.23;2.57;;;17.80;76.90;;;;;;5114249;28;20425;-43
2022/09/28 10:24:07;;;;;;;4.40;2.43;;;17.80;76.80;;;;;;5113197;28;20592;-45
2022/09/28 10:26:36;;;;;;;2.60;1.90;;;17.90;77.00;;;;;;5113375;28;20560;-43
2022/09/28 10:29:13;;;;;;;5.03;1.63;;;17.90;76.20;;;;;;5113040;28;20460;-44
2022/09/28 10:31:46;;;;;;;3.23;1.93;;;17.70;74.10;;;;;;5132945;28;20478;-44
2022/09/28 10:34:13;;;;;;;2.93;1.40;;;17.70;73.70;;;;;;5130877;28;20486;-43
2022/09/28 10:36:46;;;;;;;7.47;1.47;;;17.70;73.10;;;;;;5113139;28;20726;-44
2022/09/28 10:39:44;;;;;;;3.33;1.30;;;17.60;72.30;;;;;;5131089;28;20752;-46
2022/09/28 10:42:16;;;;;;;6.00;1.90;;;17.70;71.10;;;;;;5118534;28;20718;-45
2022/09/28 10:45:06;;;;;;;2.33;1.40;;;17.70;70.60;;;;;;5095423;28;20416;-45
2022/09/28 10:47:32;;;;;;;2.60;1.20;;;17.70;71.00;;;;;;5127509;28;20486;-42
2022/09/28 10:49:58;;;;;;;2.10;1.33;;;17.70;71.00;;;;;;5110974;28;21163;-44
2022/09/28 10:52:33;;;;;;;3.60;1.60;;;17.90;70.90;;;;;;5097704;28;20532;-44
2022/09/28 10:54:59;;;;;;;4.10;3.17;;;18.10;70.60;;;;;;5131487;28;20879;-43
2022/09/28 10:57:35;;;;;;;4.77;3.50;;;18.40;69.90;;;;;;5112147;28;20444;-45
2022/09/28 11:00:04;;;;;;;7.40;6.70;;;18.80;68.70;;;;;;5134013;27;20487;-44
2022/09/28 11:02:37;;;;;;;5.20;4.70;;;19.20;67.40;;;;;;5134414;27;20991;-44
2022/09/28 11:05:04;;;;;;;10.83;9.90;;;19.40;65.30;;;;;;5116926;27;20474;-42
2022/09/28 11:07:32;;;;;;;12.73;11.73;;;19.50;63.70;;;;;;5097483;28;20757;-44
2022/09/28 11:09:59;;;;;;;8.67;7.90;;;19.70;63.40;;;;;;5097955;28;20427;-45
2022/09/28 11:12:36;;;;;;;5.63;5.13;;;19.80;63.10;;;;;;5117232;28;20900;-49
2022/09/28 11:15:04;;;;;;;4.27;2.47;;;20.00;62.50;;;;;;5098971;28;20410;-47
2022/09/28 11:17:37;;;;;;;2.87;1.80;;;20.30;61.90;;;;;;5096840;28;20441;-44
2022/09/28 11:20:24;;;;;;;2.63;1.33;;;20.50;59.80;;;;;;5113223;28;20416;-46
2022/09/28 11:22:55;;;;;;;3.63;1.67;;;20.80;58.00;;;;;;5111389;28;20416;-47
2022/09/28 11:25:23;;;;;;;3.10;1.00;;;21.10;56.80;;;;;;5091827;28;20463;-43
2022/09/28 11:27:52;;;;;;;1.93;1.13;;;21.40;55.20;;;;;;5110809;28;20420;-48
2022/09/28 11:30:31;;;;;;;2.97;1.43;;;21.80;54.30;;;;;;5111792;28;20737;-42
2022/09/28 11:33:05;;;;;;;5.43;1.40;;;22.00;53.60;;;;;;5092887;28;20717;-43
2022/09/28 11:36:04;;;;;;;3.23;1.10;;;22.30;52.60;;;;;;5091295;28;20428;-42
2022/09/28 11:38:57;;;;;;;2.97;1.50;;;22.50;51.50;;;;;;5110921;28;20503;-45
2022/09/28 11:41:26;;;;;;;1.60;0.83;;;22.70;50.70;;;;;;5110729;28;20912;-45
2022/09/28 11:43:58;;;;;;;2.27;1.00;;;23.10;50.50;;;;;;5093714;28;20436;-45
2022/09/28 11:46:49;;;;;;;1.90;1.30;;;23.40;49.30;;;;;;5110970;28;20430;-43
2022/09/28 11:49:38;;;;;;;1.73;1.10;;;23.40;48.30;;;;;;5093582;28;20418;-43
2022/09/28 11:52:26;;;;;;;2.77;1.20;;;23.20;48.00;;;;;;5111436;28;20475;-43
2022/09/28 11:55:33;;;;;;;2.30;1.17;;;22.90;48.10;;;;;;5095767;28;20819;-45
2022/09/28 11:58:21;;;;;;;3.60;1.70;;;22.60;48.40;;;;;;5114605;28;20514;-43
2022/09/28 12:00:53;;;;;;;2.00;1.30;;;22.30;48.20;;;;;;5098679;28;20531;-44
2022/09/28 12:03:27;;;;;;;2.00;0.90;;;22.00;47.60;;;;;;5098828;28;20450;-43
2022/09/28 12:06:00;;;;;;;3.07;1.27;;;21.80;48.00;;;;;;5116299;28;20416;-43
2022/09/28 12:08:32;;;;;;;2.70;1.33;;;21.50;48.40;;;;;;5099834;28;20438;-42
2022/09/28 12:11:02;;;;;;;5.13;1.40;;;21.30;48.80;;;;;;5098777;28;20504;-44
2022/09/28 12:13:41;;;;;;;4.10;1.50;;;20.90;48.50;;;;;;5115724;28;20807;-47
2022/09/28 12:16:47;;;;;;;2.47;1.33;;;20.60;48.80;;;;;;5113314;28;20515;-43
2022/09/28 12:19:28;;;;;;;1.80;1.10;;;20.30;49.40;;;;;;5112447;28;20763;-43
2022/09/28 12:21:56;;;;;;;2.40;1.10;;;20.00;50.10;;;;;;5094896;28;20785;-46
2022/09/28 12:24:25;;;;;;;2.20;1.20;;;19.80;50.80;;;;;;5092288;28;20481;-45
2022/09/28 12:26:56;;;;;;;2.60;1.17;;;19.70;51.10;;;;;;5112992;28;20486;-44
2022/09/28 12:29:31;;;;;;;2.30;1.20;;;19.60;51.50;;;;;;5112585;28;20451;-45
2022/09/28 12:32:15;;;;;;;2.50;1.20;;;19.60;51.30;;;;;;5097174;28;20466;-41
2022/09/28 12:34:42;;;;;;;2.90;1.00;;;19.60;50.90;;;;;;5115293;28;20661;-45
2022/09/28 12:37:42;;;;;;;2.40;1.60;;;19.70;50.70;;;;;;5112960;28;20413;-44
2022/09/28 12:40:17;;;;;;;3.60;1.50;;;19.70;50.30;;;;;;5096107;28;20424;-44
2022/09/28 12:43:02;;;;;;;3.83;1.13;;;19.90;50.40;;;;;;5122157;27;20438;-46
2022/09/28 12:45:58;;;;;;;2.53;1.30;;;20.00;50.30;;;;;;5122863;27;20422;-44
2022/09/28 12:48:36;;;;;;;3.10;1.27;;;20.20;50.30;;;;;;5137682;27;20799;-42
2022/09/28 12:51:23;;;;;;;1.87;1.13;;;20.40;50.10;;;;;;5134369;27;20403;-43
2022/09/28 12:53:54;;;;;;;3.87;1.23;;;20.60;50.00;;;;;;5131237;27;20504;-46
2022/09/28 12:56:50;;;;;;;2.03;1.40;;;20.80;49.70;;;;;;5129271;27;21403;-43
2022/09/28 12:59:16;;;;;;;2.07;1.07;;;21.00;49.40;;;;;;5112900;27;20424;-46
2022/09/28 13:02:07;;;;;;;1.80;1.50;;;21.20;49.20;;;;;;5131082;27;20852;-43
2022/09/28 13:04:44;;;;;;;2.13;1.10;;;21.30;48.70;;;;;;5131626;27;20419;-43
2022/09/28 13:07:31;;;;;;;4.47;1.50;;;21.30;48.60;;;;;;5132343;27;20713;-45
2022/09/28 13:10:23;;;;;;;3.10;1.40;;;21.50;48.80;;;;;;5133330;27;20627;-46
2022/09/28 13:13:11;;;;;;;3.67;1.80;;;21.70;48.70;;;;;;5110756;27;20815;-46
2022/09/28 13:16:08;;;;;;;3.30;1.40;;;22.00;48.50;;;;;;5133885;27;20420;-47
2022/09/28 13:18:42;;;;;;;7.20;1.70;;;22.00;48.10;;;;;;5133677;27;20849;-44
2022/09/28 13:21:08;;;;;;;4.50;1.90;;;22.10;48.50;;;;;;5131670;27;20864;-44
2022/09/28 13:23:43;;;;;;;9.90;2.20;;;22.10;48.00;;;;;;5130091;27;20495;-43